Time,TemperatureF,DewpointF,PressureIn,WindDirection,WindDirectionDegrees,WindSpeedMPH,WindSpeedGustMPH,Humidity,HourlyPrecipIn,Conditions,Clouds,dailyrainin,SoftwareType,DateUTC
2014-01-01 00:01:00,38.5,34.4,30.35,NE,38,0.0,1.0,85,0.00,,,0.00,WeatherCatV1.02B3,2014-01-01 06:01:00,
2014-01-01 00:06:00,38.6,34.5,30.34,NE,38,0.0,0.0,85,0.00,,,0.00,WeatherCatV1.02B3,2014-01-01 06:06:00,
2014-01-01 00:11:00,38.6,34.5,30.34,NE,38,0.0,0.0,85,0.00,,,0.00,WeatherCatV1.02B3,2014-01-01 06:11:00,
2014-01-01 00:14:00,38.7,34.6,30.34,NE,38,0.0,0.0,85,0.00,,,0.00,WeatherCatV1.02B3,2014-01-01 06:14:00,
2014-01-01 00:19:00,38.8,34.4,30.34,NE,38,0.0,0.0,84,0.00,,,0.00,WeatherCatV1.02B3,2014-01-01 06:19:00,
2014-01-01 00:24:00,38.8,34.4,30.34,NE,38,0.0,0.0,84,0.00,,,0.00,WeatherCatV1.02B3,2014-01-01 06:24:00,
2014-01-01 00:29:00,38.8,34.4,30.34,NE,38,0.0,0.0,84,0.00,,,0.00,WeatherCatV1.02B3,2014-01-01 06:29:00,
2014-01-01 00:34:00,38.8,34.4,30.34,NE,38,0.0,0.0,84,0.00,,,0.00,WeatherCatV1.02B3,2014-01-01 06:34:00,
2014-01-01 00:39:00,38.8,34.4,30.34,NE,38,0.0,0.0,84,0.00,,,0.00,WeatherCatV1.02B3,2014-01-01 06:39:00,
2014-01-01 00:44:00,38.7,34.3,30.33,NE,38,0.0,0.0,84,0.00,,,0.00,WeatherCatV1.02B3,2014-01-01 06:44:00,
2014-01-01 00:49:00,38.7,34.3,30.33,NE,38,0.0,0.0,84,0.00,,,0.00,WeatherCatV1.02B3,2014-01-01 06:49:00,
2014-01-01 00:54:00,38.6,34.2,30.33,NE,38,0.0,0.0,84,0.00,,,0.00,WeatherCatV1.02B3,2014-01-01 06:54:00,
2014-01-01 00:55:00,38.6,34.2,30.33,NE,38,0.0,0.0,84,0.00,,,0.00,WeatherCatV1.02B3,2014-01-01 06:55:00,
2014-01-01 01:00:00,38.6,34.2,30.33,NE,38,0.0,0.0,84,0.00,,,0.00,WeatherCatV1.02B3,2014-01-01 07:00:00,
2014-01-01 01:05:00,38.5,34.4,30.33,NE,38,0.0,0.0,85,0.00,,,0.00,WeatherCatV1.02B3,2014-01-01 07:05:00,
2014-01-01 01:10:00,38.4,34.3,30.33,NE,38,0.0,0.0,85,0.00,,,0.00,WeatherCatV1.02B3,2014-01-01 07:10:00,
2014-01-01 01:15:00,38.4,34.3,30.33,NE,38,0.0,0.0,85,0.00,,,0.00,WeatherCatV1.02B3,2014-01-01 07:15:00,
2014-01-01 01:20:00,38.3,34.2,30.33,NE,38,0.0,0.0,85,0.00,,,0.00,WeatherCatV1.02B3,2014-01-01 07:20:00,
2014-01-01 01:22:00,38.2,34.1,30.33,NE,38,0.0,0.0,85,0.00,,,0.00,WeatherCatV1.02B3,2014-01-01 07:22:00,
2014-01-01 01:27:00,38.2,34.1,30.33,NE,38,0.0,0.0,85,0.00,,,0.00,WeatherCatV1.02B3,2014-01-01 07:27:00,
2014-01-01 01:32:00,38.1,34.3,30.33,NE,38,0.0,0.0,86,0.00,,,0.00,WeatherCatV1.02B3,2014-01-01 07:32:00,
2014-01-01 01:37:00,38.1,34.3,30.33,NE,38,0.0,1.0,86,0.00,,,0.00,WeatherCatV1.02B3,2014-01-01 07:37:00,
2014-01-01 01:42:00,38.0,34.2,30.32,NE,38,0.0,0.0,86,0.00,,,0.00,WeatherCatV1.02B3,2014-01-01 07:42:00,
2014-01-01 01:47:00,38.0,34.5,30.32,NE,38,0.0,0.0,87,0.00,,,0.00,WeatherCatV1.02B3,2014-01-01 07:47:00,
2014-01-01 01:52:00,38.0,34.5,30.32,NE,38,0.0,0.0,87,0.00,,,0.00,WeatherCatV1.02B3,2014-01-01 07:52:00,
2014-01-01 01:57:00,38.0,34.5,30.33,NE,38,0.0,0.0,87,0.00,,,0.00,WeatherCatV1.02B3,2014-01-01 07:57:00,
2014-01-01 02:00:00,38.0,34.5,30.32,NE,38,0.0,0.0,87,0.00,,,0.00,WeatherCatV1.02B3,2014-01-01 08:00:00,
2014-01-01 02:05:00,38.0,34.5,30.33,NE,38,0.0,0.0,87,0.00,,,0.00,WeatherCatV1.02B3,2014-01-01 08:05:00,
2014-01-01 02:10:00,38.1,34.9,30.33,NE,38,0.0,0.0,88,0.00,,,0.00,WeatherCatV1.02B3,2014-01-01 08:10:00,
2014-01-01 02:15:00,38.1,34.9,30.33,NE,38,0.0,0.0,88,0.00,,,0.00,WeatherCatV1.02B3,2014-01-01 08:15:00,
2014-01-01 02:20:00,38.2,35.0,30.33,NE,38,0.0,0.0,88,0.00,,,0.00,WeatherCatV1.02B3,2014-01-01 08:20:00,
2014-01-01 02:25:00,38.2,35.0,30.33,NE,38,0.0,0.0,88,0.00,,,0.00,WeatherCatV1.02B3,2014-01-01 08:25:00,
2014-01-01 02:30:00,38.2,35.0,30.33,NE,38,0.0,0.0,88,0.00,,,0.00,WeatherCatV1.02B3,2014-01-01 08:30:00,
2014-01-01 02:35:00,38.2,35.0,30.33,NE,38,0.0,0.0,88,0.00,,,0.00,WeatherCatV1.02B3,2014-01-01 08:35:00,
2014-01-01 02:40:00,38.2,35.0,30.33,NE,38,0.0,0.0,88,0.00,,,0.00,WeatherCatV1.02B3,2014-01-01 08:40:00,
2014-01-01 02:45:00,38.2,35.0,30.33,NE,38,0.0,0.0,88,0.00,,,0.00,WeatherCatV1.02B3,2014-01-01 08:45:00,
2014-01-01 02:50:00,38.2,35.0,30.33,NE,38,0.0,0.0,88,0.00,,,0.00,WeatherCatV1.02B3,2014-01-01 08:50:00,
2014-01-01 02:55:00,38.1,34.9,30.33,NE,38,0.0,0.0,88,0.00,,,0.00,WeatherCatV1.02B3,2014-01-01 08:55:00,
2014-01-01 03:00:00,38.1,34.9,30.33,NE,38,0.0,0.0,88,0.00,,,0.00,WeatherCatV1.02B3,2014-01-01 09:00:00,
2014-01-01 03:05:00,38.0,34.8,30.33,NE,38,0.0,0.0,88,0.00,,,0.00,WeatherCatV1.02B3,2014-01-01 09:05:00,
2014-01-01 03:10:00,37.9,34.7,30.32,NE,38,0.0,0.0,88,0.00,,,0.00,WeatherCatV1.02B3,2014-01-01 09:10:00,
2014-01-01 03:15:00,37.8,34.6,30.32,NE,38,0.0,0.0,88,0.00,,,0.00,WeatherCatV1.02B3,2014-01-01 09:15:00,
2014-01-01 03:20:00,37.6,34.4,30.32,NE,38,0.0,0.0,88,0.00,,,0.00,WeatherCatV1.02B3,2014-01-01 09:20:00,
2014-01-01 03:25:00,37.5,34.3,30.32,NE,38,0.0,0.0,88,0.00,,,0.00,WeatherCatV1.02B3,2014-01-01 09:25:00,
2014-01-01 03:30:00,37.3,34.1,30.31,NE,38,0.0,0.0,88,0.00,,,0.00,WeatherCatV1.02B3,2014-01-01 09:30:00,
2014-01-01 03:35:00,37.2,34.0,30.31,NE,38,0.0,0.0,88,0.00,,,0.00,WeatherCatV1.02B3,2014-01-01 09:35:00,
2014-01-01 03:40:00,37.1,34.2,30.31,NE,38,0.0,0.0,89,0.00,,,0.00,WeatherCatV1.02B3,2014-01-01 09:40:00,
2014-01-01 03:45:00,37.0,34.1,30.32,NE,38,0.0,0.0,89,0.00,,,0.00,WeatherCatV1.02B3,2014-01-01 09:45:00,
2014-01-01 03:50:00,36.9,34.0,30.32,NE,38,0.0,0.0,89,0.00,,,0.00,WeatherCatV1.02B3,2014-01-01 09:50:00,
2014-01-01 03:55:00,36.8,33.9,30.31,NE,38,0.0,0.0,89,0.00,,,0.00,WeatherCatV1.02B3,2014-01-01 09:55:00,
2014-01-01 04:00:00,36.6,33.7,30.32,NE,38,0.0,0.0,89,0.00,,,0.00,WeatherCatV1.02B3,2014-01-01 10:00:00,
2014-01-01 04:05:00,36.5,33.6,30.32,NE,38,0.0,0.0,89,0.00,,,0.00,WeatherCatV1.02B3,2014-01-01 10:05:00,
2014-01-01 04:10:00,36.4,33.8,30.31,NE,38,0.0,0.0,90,0.00,,,0.00,WeatherCatV1.02B3,2014-01-01 10:10:00,
2014-01-01 04:15:00,36.4,33.8,30.31,NE,38,0.0,0.0,90,0.00,,,0.00,WeatherCatV1.02B3,2014-01-01 10:15:00,
2014-01-01 04:20:00,36.4,33.8,30.31,NE,38,0.0,0.0,90,0.00,,,0.00,WeatherCatV1.02B3,2014-01-01 10:20:00,
2014-01-01 04:25:00,36.4,34.0,30.31,NE,38,0.0,0.0,91,0.00,,,0.00,WeatherCatV1.02B3,2014-01-01 10:25:00,
2014-01-01 04:30:00,36.3,33.9,30.31,NE,38,0.0,0.0,91,0.00,,,0.00,WeatherCatV1.02B3,2014-01-01 10:30:00,
2014-01-01 04:35:00,36.3,33.9,30.31,NE,38,0.0,0.0,91,0.00,,,0.00,WeatherCatV1.02B3,2014-01-01 10:35:00,
2014-01-01 04:40:00,36.3,33.9,30.31,NE,38,0.0,0.0,91,0.00,,,0.00,WeatherCatV1.02B3,2014-01-01 10:40:00,
2014-01-01 04:45:00,36.3,33.9,30.30,NE,38,0.0,0.0,91,0.00,,,0.00,WeatherCatV1.02B3,2014-01-01 10:45:00,
2014-01-01 04:50:00,36.4,34.0,30.30,NE,38,0.0,0.0,91,0.00,,,0.00,WeatherCatV1.02B3,2014-01-01 10:50:00,
2014-01-01 04:55:00,36.4,34.0,30.30,NE,38,0.0,0.0,91,0.00,,,0.00,WeatherCatV1.02B3,2014-01-01 10:55:00,
2014-01-01 05:00:00,36.4,34.0,30.30,NE,38,0.0,0.0,91,0.00,,,0.00,WeatherCatV1.02B3,2014-01-01 11:00:00,
2014-01-01 05:05:00,36.4,34.3,30.30,NE,38,0.0,0.0,92,0.00,,,0.00,WeatherCatV1.02B3,2014-01-01 11:05:00,
2014-01-01 05:10:00,36.5,34.4,30.29,NE,38,0.0,0.0,92,0.00,,,0.00,WeatherCatV1.02B3,2014-01-01 11:10:00,
2014-01-01 05:15:00,36.4,34.3,30.30,NE,38,0.0,0.0,92,0.00,,,0.00,WeatherCatV1.02B3,2014-01-01 11:15:00,
2014-01-01 05:20:00,36.5,34.4,30.29,NE,38,0.0,0.0,92,0.00,,,0.00,WeatherCatV1.02B3,2014-01-01 11:20:00,
2014-01-01 05:25:00,36.4,34.3,30.29,NE,38,0.0,0.0,92,0.00,,,0.00,WeatherCatV1.02B3,2014-01-01 11:25:00,
2014-01-01 05:30:00,36.5,34.4,30.29,NE,38,0.0,0.0,92,0.00,,,0.00,WeatherCatV1.02B3,2014-01-01 11:30:00,
2014-01-01 05:35:00,36.4,34.3,30.29,NE,38,0.0,0.0,92,0.00,,,0.00,WeatherCatV1.02B3,2014-01-01 11:35:00,
2014-01-01 05:40:00,36.5,34.4,30.29,NE,38,0.0,0.0,92,0.00,,,0.00,WeatherCatV1.02B3,2014-01-01 11:40:00,
2014-01-01 05:45:00,36.5,34.4,30.29,NE,38,0.0,0.0,92,0.00,,,0.00,WeatherCatV1.02B3,2014-01-01 11:45:00,
2014-01-01 05:50:00,36.5,34.4,30.29,NE,38,0.0,0.0,92,0.00,,,0.00,WeatherCatV1.02B3,2014-01-01 11:50:00,
2014-01-01 05:55:00,36.5,34.4,30.30,NE,38,0.0,0.0,92,0.00,,,0.00,WeatherCatV1.02B3,2014-01-01 11:55:00,
2014-01-01 06:00:00,36.5,34.4,30.30,NE,38,0.0,0.0,92,0.00,,,0.00,WeatherCatV1.02B3,2014-01-01 12:00:00,
2014-01-01 06:05:00,36.5,34.4,30.30,NE,38,0.0,0.0,92,0.00,,,0.00,WeatherCatV1.02B3,2014-01-01 12:05:00,
2014-01-01 06:10:00,36.6,34.8,30.29,NE,38,0.0,0.0,93,0.00,,,0.00,WeatherCatV1.02B3,2014-01-01 12:10:00,
2014-01-01 06:15:00,36.6,34.8,30.30,NE,38,0.0,0.0,93,0.00,,,0.00,WeatherCatV1.02B3,2014-01-01 12:15:00,
2014-01-01 06:20:00,36.5,34.7,30.29,NE,38,0.0,0.0,93,0.00,,,0.00,WeatherCatV1.02B3,2014-01-01 12:20:00,
2014-01-01 06:25:00,36.5,34.7,30.30,NE,38,0.0,0.0,93,0.00,,,0.00,WeatherCatV1.02B3,2014-01-01 12:25:00,
2014-01-01 06:30:00,36.5,34.7,30.30,NE,38,0.0,0.0,93,0.00,,,0.00,WeatherCatV1.02B3,2014-01-01 12:30:00,
2014-01-01 06:35:00,36.4,34.6,30.29,NE,38,0.0,0.0,93,0.00,,,0.00,WeatherCatV1.02B3,2014-01-01 12:35:00,
2014-01-01 06:40:00,36.4,34.6,30.30,NE,38,0.0,0.0,93,0.00,,,0.00,WeatherCatV1.02B3,2014-01-01 12:40:00,
2014-01-01 06:45:00,36.4,34.6,30.29,NE,38,0.0,0.0,93,0.00,,,0.00,WeatherCatV1.02B3,2014-01-01 12:45:00,
2014-01-01 06:50:00,36.5,34.7,30.30,NE,38,0.0,0.0,93,0.00,,,0.00,WeatherCatV1.02B3,2014-01-01 12:50:00,
2014-01-01 06:55:00,36.5,34.7,30.30,NE,38,0.0,0.0,93,0.00,,,0.00,WeatherCatV1.02B3,2014-01-01 12:55:00,
2014-01-01 07:00:00,36.4,34.6,30.30,NE,38,0.0,0.0,93,0.00,,,0.00,WeatherCatV1.02B3,2014-01-01 13:00:00,
2014-01-01 07:05:00,36.4,34.6,30.30,NE,38,0.0,0.0,93,0.00,,,0.00,WeatherCatV1.02B3,2014-01-01 13:05:00,
2014-01-01 07:10:00,36.4,34.6,30.30,NE,38,0.0,0.0,93,0.00,,,0.00,WeatherCatV1.02B3,2014-01-01 13:10:00,
2014-01-01 07:15:00,36.4,34.6,30.30,NE,38,0.0,0.0,93,0.00,,,0.00,WeatherCatV1.02B3,2014-01-01 13:15:00,
2014-01-01 07:20:00,36.5,34.7,30.30,NE,38,0.0,0.0,93,0.00,,,0.00,WeatherCatV1.02B3,2014-01-01 13:20:00,
2014-01-01 07:25:00,36.5,34.7,30.30,NE,38,0.0,0.0,93,0.00,,,0.00,WeatherCatV1.02B3,2014-01-01 13:25:00,
2014-01-01 07:30:00,36.5,34.7,30.30,NE,38,0.0,0.0,93,0.00,,,0.00,WeatherCatV1.02B3,2014-01-01 13:30:00,
2014-01-01 07:35:00,36.5,34.7,30.30,NE,38,0.0,0.0,93,0.00,,,0.00,WeatherCatV1.02B3,2014-01-01 13:35:00,
2014-01-01 07:40:00,36.6,35.0,30.30,NE,38,0.0,0.0,94,0.00,,,0.00,WeatherCatV1.02B3,2014-01-01 13:40:00,
2014-01-01 07:45:00,36.7,35.1,30.30,NE,38,0.0,0.0,94,0.00,,,0.00,WeatherCatV1.02B3,2014-01-01 13:45:00,
2014-01-01 07:50:00,36.8,35.2,30.30,NE,38,0.0,0.0,94,0.00,,,0.00,WeatherCatV1.02B3,2014-01-01 13:50:00,
2014-01-01 07:55:00,37.1,35.5,30.30,NE,38,0.0,0.0,94,0.00,,,0.00,WeatherCatV1.02B3,2014-01-01 13:55:00,
2014-01-01 08:00:00,37.2,35.6,30.30,NE,38,0.0,0.0,94,0.00,,,0.00,WeatherCatV1.02B3,2014-01-01 14:00:00,
2014-01-01 08:05:00,37.4,35.8,30.30,NE,38,0.0,0.0,94,0.00,,,0.00,WeatherCatV1.02B3,2014-01-01 14:05:00,
2014-01-01 08:10:00,37.7,36.1,30.29,NE,38,0.0,0.0,94,0.00,,,0.00,WeatherCatV1.02B3,2014-01-01 14:10:00,
2014-01-01 08:15:00,37.9,36.3,30.30,NE,38,0.0,0.0,94,0.00,,,0.00,WeatherCatV1.02B3,2014-01-01 14:15:00,
2014-01-01 08:20:00,38.2,36.6,30.30,NE,38,0.0,0.0,94,0.00,,,0.00,WeatherCatV1.02B3,2014-01-01 14:20:00,
2014-01-01 08:25:00,38.5,36.9,30.30,NE,38,0.0,0.0,94,0.00,,,0.00,WeatherCatV1.02B3,2014-01-01 14:25:00,
2014-01-01 08:30:00,38.8,37.2,30.30,NE,38,0.0,0.0,94,0.00,,,0.00,WeatherCatV1.02B3,2014-01-01 14:30:00,
2014-01-01 08:35:00,39.1,37.5,30.30,NE,38,0.0,2.0,94,0.00,,,0.00,WeatherCatV1.02B3,2014-01-01 14:35:00,
2014-01-01 08:40:00,39.5,37.9,30.30,NE,38,0.0,2.0,94,0.00,,,0.00,WeatherCatV1.02B3,2014-01-01 14:40:00,
2014-01-01 08:45:00,39.8,38.2,30.31,NE,38,0.0,2.0,94,0.00,,,0.00,WeatherCatV1.02B3,2014-01-01 14:45:00,
2014-01-01 08:50:00,40.2,38.6,30.30,NE,38,0.0,2.0,94,0.00,,,0.00,WeatherCatV1.02B3,2014-01-01 14:50:00,
2014-01-01 08:55:00,40.6,39.0,30.31,NE,38,1.0,1.0,94,0.00,,,0.00,WeatherCatV1.02B3,2014-01-01 14:55:00,
2014-01-01 09:00:00,41.0,39.4,30.31,NE,38,0.0,0.0,94,0.00,,,0.00,WeatherCatV1.02B3,2014-01-01 15:00:00,
2014-01-01 09:05:00,41.4,39.8,30.31,NE,38,0.0,0.0,94,0.00,,,0.00,WeatherCatV1.02B3,2014-01-01 15:05:00,
2014-01-01 09:10:00,41.9,40.3,30.31,South,175,0.0,1.0,94,0.00,,,0.00,WeatherCatV1.02B3,2014-01-01 15:10:00,
2014-01-01 09:15:00,42.3,40.4,30.31,SSE,150,0.0,2.0,93,0.00,,,0.00,WeatherCatV1.02B3,2014-01-01 15:15:00,
2014-01-01 09:20:00,42.7,40.5,30.31,SSE,152,0.0,1.0,92,0.00,,,0.00,WeatherCatV1.02B3,2014-01-01 15:20:00,
2014-01-01 09:25:00,43.0,40.8,30.30,SSE,152,0.0,0.0,92,0.00,,,0.00,WeatherCatV1.02B3,2014-01-01 15:25:00,
2014-01-01 09:30:00,43.4,41.0,30.30,SSE,152,0.0,0.0,91,0.00,,,0.00,WeatherCatV1.02B3,2014-01-01 15:30:00,
2014-01-01 09:35:00,43.7,41.0,30.30,SSE,148,0.0,0.0,90,0.00,,,0.00,WeatherCatV1.02B3,2014-01-01 15:35:00,
2014-01-01 09:40:00,44.0,41.0,30.30,SSE,148,0.0,0.0,89,0.00,,,0.00,WeatherCatV1.02B3,2014-01-01 15:40:00,
2014-01-01 09:45:00,44.4,41.1,30.30,SSE,147,0.0,2.0,88,0.00,,,0.00,WeatherCatV1.02B3,2014-01-01 15:45:00,
2014-01-01 09:50:00,44.7,41.1,30.30,SSE,147,0.0,1.0,87,0.00,,,0.00,WeatherCatV1.02B3,2014-01-01 15:50:00,
2014-01-01 09:55:00,45.1,41.2,30.30,SSE,147,0.0,1.0,86,0.00,,,0.00,WeatherCatV1.02B3,2014-01-01 15:55:00,
2014-01-01 10:00:00,45.4,41.5,30.30,SSE,147,0.0,2.0,86,0.00,,,0.00,WeatherCatV1.02B3,2014-01-01 16:00:00,
2014-01-01 10:05:00,45.8,41.9,30.30,SSE,147,0.0,1.0,86,0.00,,,0.00,WeatherCatV1.02B3,2014-01-01 16:05:00,
2014-01-01 10:10:00,46.1,41.8,30.30,SSE,147,0.0,2.0,85,0.00,,,0.00,WeatherCatV1.02B3,2014-01-01 16:10:00,
2014-01-01 10:15:00,46.4,41.8,30.30,SSE,147,0.0,1.0,84,0.00,,,0.00,WeatherCatV1.02B3,2014-01-01 16:15:00,
2014-01-01 10:20:00,46.7,42.4,30.30,SSE,147,0.0,0.0,85,0.00,,,0.00,WeatherCatV1.02B3,2014-01-01 16:20:00,
2014-01-01 10:25:00,47.1,42.8,30.30,SSE,147,0.0,0.0,85,0.00,,,0.00,WeatherCatV1.02B3,2014-01-01 16:25:00,
2014-01-01 10:30:00,47.6,43.0,30.30,SSE,147,0.0,0.0,84,0.00,,,0.00,WeatherCatV1.02B3,2014-01-01 16:30:00,
2014-01-01 10:35:00,48.1,43.2,30.29,SSE,147,2.0,2.0,83,0.00,,,0.00,WeatherCatV1.02B3,2014-01-01 16:35:00,
2014-01-01 10:40:00,48.5,43.3,30.29,SSE,147,0.0,2.0,82,0.00,,,0.00,WeatherCatV1.02B3,2014-01-01 16:40:00,
2014-01-01 10:45:00,49.0,44.1,30.28,SSE,147,0.0,1.0,83,0.00,,,0.00,WeatherCatV1.02B3,2014-01-01 16:45:00,
2014-01-01 10:50:00,49.7,44.7,30.28,SSE,147,0.0,1.0,83,0.00,,,0.00,WeatherCatV1.02B3,2014-01-01 16:50:00,
2014-01-01 10:55:00,50.6,45.3,30.27,SSE,147,0.0,1.0,82,0.00,,,0.00,WeatherCatV1.02B3,2014-01-01 16:55:00,
2014-01-01 11:00:00,51.4,45.8,30.27,SE,138,0.0,4.0,81,0.00,,,0.00,WeatherCatV1.02B3,2014-01-01 17:00:00,
2014-01-01 11:05:00,51.9,45.6,30.27,SE,141,0.0,4.0,79,0.00,,,0.00,WeatherCatV1.02B3,2014-01-01 17:05:00,
2014-01-01 11:10:00,52.1,45.5,30.26,SSE,155,0.0,5.0,78,0.00,,,0.00,WeatherCatV1.02B3,2014-01-01 17:10:00,
2014-01-01 11:15:00,52.1,45.8,30.26,SSE,159,0.0,2.0,79,0.00,,,0.00,WeatherCatV1.02B3,2014-01-01 17:15:00,
2014-01-01 11:20:00,52.4,46.4,30.26,SE,138,0.0,0.0,80,0.00,,,0.00,WeatherCatV1.02B3,2014-01-01 17:20:00,
2014-01-01 11:25:00,52.6,45.9,30.25,SE,144,2.0,2.0,78,0.00,,,0.00,WeatherCatV1.02B3,2014-01-01 17:25:00,
2014-01-01 11:30:00,52.8,46.1,30.25,SE,143,0.0,4.0,78,0.00,,,0.00,WeatherCatV1.02B3,2014-01-01 17:30:00,
2014-01-01 11:35:00,52.8,46.1,30.24,SE,141,2.0,4.0,78,0.00,,,0.00,WeatherCatV1.02B3,2014-01-01 17:35:00,
2014-01-01 11:40:00,52.9,46.2,30.24,SE,135,0.0,0.0,78,0.00,,,0.00,WeatherCatV1.02B3,2014-01-01 17:40:00,
2014-01-01 11:45:00,53.1,46.1,30.23,South,177,1.0,4.0,77,0.00,,,0.00,WeatherCatV1.02B3,2014-01-01 17:45:00,
2014-01-01 11:50:00,53.3,46.3,30.23,South,175,0.0,1.0,77,0.00,,,0.00,WeatherCatV1.02B3,2014-01-01 17:50:00,
2014-01-01 11:55:00,53.5,46.1,30.22,SSE,168,0.0,1.0,76,0.00,,,0.00,WeatherCatV1.02B3,2014-01-01 17:55:00,
2014-01-01 12:00:00,53.7,46.3,30.22,SSE,159,0.0,1.0,76,0.00,,,0.00,WeatherCatV1.02B3,2014-01-01 18:00:00,
2014-01-01 12:05:00,54.0,47.0,30.22,SSE,159,0.0,2.0,77,0.00,,,0.00,WeatherCatV1.02B3,2014-01-01 18:05:00,
2014-01-01 12:10:00,54.3,46.5,30.21,SSW,202,0.0,4.0,75,0.00,,,0.00,WeatherCatV1.02B3,2014-01-01 18:10:00,
2014-01-01 12:15:00,54.7,46.6,30.21,South,173,0.0,2.0,74,0.00,,,0.00,WeatherCatV1.02B3,2014-01-01 18:15:00,
2014-01-01 12:20:00,55.0,47.2,30.20,SSE,159,0.0,5.0,75,0.00,,,0.00,WeatherCatV1.02B3,2014-01-01 18:20:00,
2014-01-01 12:25:00,55.3,47.2,30.20,South,173,0.0,1.0,74,0.00,,,0.00,WeatherCatV1.02B3,2014-01-01 18:25:00,
2014-01-01 12:30:00,55.5,47.3,30.20,South,175,0.0,2.0,74,0.00,,,0.00,WeatherCatV1.02B3,2014-01-01 18:30:00,
2014-01-01 12:35:00,55.8,47.3,30.19,East,98,0.0,1.0,73,0.00,,,0.00,WeatherCatV1.02B3,2014-01-01 18:35:00,
2014-01-01 12:40:00,55.9,47.7,30.19,East,98,2.0,4.0,74,0.00,,,0.00,WeatherCatV1.02B3,2014-01-01 18:40:00,
2014-01-01 12:45:00,56.0,47.5,30.19,SE,129,0.0,2.0,73,0.00,,,0.00,WeatherCatV1.02B3,2014-01-01 18:45:00,
2014-01-01 12:50:00,56.2,47.7,30.18,SE,129,0.0,0.0,73,0.00,,,0.00,WeatherCatV1.02B3,2014-01-01 18:50:00,
2014-01-01 12:55:00,56.4,47.9,30.18,SE,133,0.0,6.0,73,0.00,,,0.00,WeatherCatV1.02B3,2014-01-01 18:55:00,
2014-01-01 13:00:00,56.7,47.8,30.18,South,185,0.0,1.0,72,0.00,,,0.00,WeatherCatV1.02B3,2014-01-01 19:00:00,
2014-01-01 13:05:00,56.9,48.0,30.17,East,100,0.0,4.0,72,0.00,,,0.00,WeatherCatV1.02B3,2014-01-01 19:05:00,
2014-01-01 13:10:00,57.2,47.9,30.17,East,101,0.0,0.0,71,0.00,,,0.00,WeatherCatV1.02B3,2014-01-01 19:10:00,
2014-01-01 13:15:00,57.3,48.0,30.17,East,101,0.0,0.0,71,0.00,,,0.00,WeatherCatV1.02B3,2014-01-01 19:15:00,
2014-01-01 13:20:00,57.4,48.1,30.17,East,101,0.0,1.0,71,0.00,,,0.00,WeatherCatV1.02B3,2014-01-01 19:20:00,
2014-01-01 13:25:00,57.5,48.2,30.17,East,101,0.0,1.0,71,0.00,,,0.00,WeatherCatV1.02B3,2014-01-01 19:25:00,
2014-01-01 13:30:00,57.5,48.2,30.17,East,101,0.0,0.0,71,0.00,,,0.00,WeatherCatV1.02B3,2014-01-01 19:30:00,
2014-01-01 13:35:00,57.6,47.9,30.16,East,101,0.0,0.0,70,0.00,,,0.00,WeatherCatV1.02B3,2014-01-01 19:35:00,
2014-01-01 13:40:00,57.7,48.0,30.16,East,101,0.0,0.0,70,0.00,,,0.00,WeatherCatV1.02B3,2014-01-01 19:40:00,
2014-01-01 13:45:00,57.9,48.2,30.16,East,101,0.0,0.0,70,0.00,,,0.00,WeatherCatV1.02B3,2014-01-01 19:45:00,
2014-01-01 13:50:00,58.1,48.7,30.15,East,101,0.0,0.0,71,0.00,,,0.00,WeatherCatV1.02B3,2014-01-01 19:50:00,
2014-01-01 13:55:00,58.4,49.0,30.15,East,101,0.0,0.0,71,0.00,,,0.00,WeatherCatV1.02B3,2014-01-01 19:55:00,
2014-01-01 14:00:00,59.1,49.7,30.15,East,101,0.0,1.0,71,0.00,,,0.00,WeatherCatV1.02B3,2014-01-01 20:00:00,
2014-01-01 14:05:00,59.8,50.0,30.15,East,101,0.0,0.0,70,0.00,,,0.00,WeatherCatV1.02B3,2014-01-01 20:05:00,
2014-01-01 14:10:00,60.9,50.3,30.15,ESE,109,0.0,6.0,68,0.00,,,0.00,WeatherCatV1.02B3,2014-01-01 20:10:00,
2014-01-01 14:15:00,61.6,50.5,30.15,South,185,3.0,3.0,67,0.00,,,0.00,WeatherCatV1.02B3,2014-01-01 20:15:00,
2014-01-01 14:20:00,61.8,50.3,30.14,East,99,4.0,4.0,66,0.00,,,0.00,WeatherCatV1.02B3,2014-01-01 20:20:00,
2014-01-01 14:25:00,61.8,50.3,30.14,South,169,0.0,6.0,66,0.00,,,0.00,WeatherCatV1.02B3,2014-01-01 20:25:00,
2014-01-01 14:30:00,61.6,50.1,30.14,ESE,109,0.0,4.0,66,0.00,,,0.00,WeatherCatV1.02B3,2014-01-01 20:30:00,
2014-01-01 14:35:00,61.5,50.4,30.14,SE,144,5.0,8.0,67,0.00,,,0.00,WeatherCatV1.02B3,2014-01-01 20:35:00,
2014-01-01 14:40:00,61.4,49.9,30.14,South,173,2.0,5.0,66,0.00,,,0.00,WeatherCatV1.02B3,2014-01-01 20:40:00,
2014-01-01 14:45:00,61.5,50.0,30.14,East,95,4.0,5.0,66,0.00,,,0.00,WeatherCatV1.02B3,2014-01-01 20:45:00,
2014-01-01 14:50:00,61.5,50.0,30.13,SSW,211,5.0,5.0,66,0.00,,,0.00,WeatherCatV1.02B3,2014-01-01 20:50:00,
2014-01-01 14:55:00,61.4,49.9,30.13,ESE,116,0.0,4.0,66,0.00,,,0.00,WeatherCatV1.02B3,2014-01-01 20:55:00,
2014-01-01 15:00:00,61.3,50.2,30.13,SSE,155,0.0,4.0,67,0.00,,,0.00,WeatherCatV1.02B3,2014-01-01 21:00:00,
2014-01-01 15:05:00,61.3,50.2,30.13,SE,138,0.0,4.0,67,0.00,,,0.00,WeatherCatV1.02B3,2014-01-01 21:05:00,
2014-01-01 15:10:00,61.4,50.3,30.13,ESE,119,2.0,8.0,67,0.00,,,0.00,WeatherCatV1.02B3,2014-01-01 21:10:00,
2014-01-01 15:15:00,61.4,50.7,30.13,SSE,162,1.0,4.0,68,0.00,,,0.00,WeatherCatV1.02B3,2014-01-01 21:15:00,
2014-01-01 15:20:00,61.4,50.7,30.13,SE,130,1.0,8.0,68,0.00,,,0.00,WeatherCatV1.02B3,2014-01-01 21:20:00,
2014-01-01 15:25:00,61.2,50.5,30.12,ESE,113,1.0,8.0,68,0.00,,,0.00,WeatherCatV1.02B3,2014-01-01 21:25:00,
2014-01-01 15:30:00,60.9,50.7,30.12,SE,134,0.0,0.0,69,0.00,,,0.00,WeatherCatV1.02B3,2014-01-01 21:30:00,
2014-01-01 15:35:00,60.5,50.7,30.12,ESE,113,1.0,6.0,70,0.00,,,0.00,WeatherCatV1.02B3,2014-01-01 21:35:00,
2014-01-01 15:40:00,60.2,50.4,30.12,SE,146,2.0,2.0,70,0.00,,,0.00,WeatherCatV1.02B3,2014-01-01 21:40:00,
2014-01-01 15:45:00,59.9,50.5,30.13,ESE,114,0.0,1.0,71,0.00,,,0.00,WeatherCatV1.02B3,2014-01-01 21:45:00,
2014-01-01 15:50:00,59.5,50.1,30.13,SE,128,4.0,4.0,71,0.00,,,0.00,WeatherCatV1.02B3,2014-01-01 21:50:00,
2014-01-01 15:55:00,59.2,50.2,30.13,ESE,115,1.0,4.0,72,0.00,,,0.00,WeatherCatV1.02B3,2014-01-01 21:55:00,
2014-01-01 16:00:00,58.7,50.1,30.14,ESE,113,0.0,1.0,73,0.00,,,0.00,WeatherCatV1.02B3,2014-01-01 22:00:00,
2014-01-01 16:05:00,58.3,50.0,30.13,SE,124,0.0,6.0,74,0.00,,,0.00,WeatherCatV1.02B3,2014-01-01 22:05:00,
2014-01-01 16:10:00,57.9,49.7,30.13,ESE,119,1.0,4.0,74,0.00,,,0.00,WeatherCatV1.02B3,2014-01-01 22:10:00,
2014-01-01 16:15:00,57.7,49.8,30.13,ESE,123,0.0,5.0,75,0.00,,,0.00,WeatherCatV1.02B3,2014-01-01 22:15:00,
2014-01-01 16:20:00,57.3,49.8,30.14,SSE,148,0.0,0.0,76,0.00,,,0.00,WeatherCatV1.02B3,2014-01-01 22:20:00,
2014-01-01 16:25:00,57.1,49.6,30.13,SE,145,1.0,4.0,76,0.00,,,0.00,WeatherCatV1.02B3,2014-01-01 22:25:00,
2014-01-01 16:30:00,56.8,49.7,30.13,SE,138,0.0,1.0,77,0.00,,,0.00,WeatherCatV1.02B3,2014-01-01 22:30:00,
2014-01-01 16:35:00,56.5,49.7,30.13,SE,126,2.0,2.0,78,0.00,,,0.00,WeatherCatV1.02B3,2014-01-01 22:35:00,
2014-01-01 16:40:00,56.3,49.5,30.13,SE,127,0.0,6.0,78,0.00,,,0.00,WeatherCatV1.02B3,2014-01-01 22:40:00,
2014-01-01 16:45:00,56.0,49.6,30.12,SE,126,0.0,5.0,79,0.00,,,0.00,WeatherCatV1.02B3,2014-01-01 22:45:00,
2014-01-01 16:50:00,55.8,49.4,30.12,SE,126,0.0,0.0,79,0.00,,,0.00,WeatherCatV1.02B3,2014-01-01 22:50:00,
2014-01-01 16:55:00,55.5,49.4,30.12,SE,126,0.0,0.0,80,0.00,,,0.00,WeatherCatV1.02B3,2014-01-01 22:55:00,
2014-01-01 17:00:00,55.3,49.2,30.12,SE,126,1.0,2.0,80,0.00,,,0.00,WeatherCatV1.02B3,2014-01-01 23:00:00,
2014-01-01 17:05:00,55.0,49.3,30.12,SE,126,0.0,0.0,81,0.00,,,0.00,WeatherCatV1.02B3,2014-01-01 23:05:00,
2014-01-01 17:10:00,54.8,49.1,30.12,SE,126,0.0,0.0,81,0.00,,,0.00,WeatherCatV1.02B3,2014-01-01 23:10:00,
2014-01-01 17:15:00,54.6,49.2,30.12,SE,126,0.0,0.0,82,0.00,,,0.00,WeatherCatV1.02B3,2014-01-01 23:15:00,
2014-01-01 17:20:00,54.4,49.0,30.12,SE,126,0.0,0.0,82,0.00,,,0.00,WeatherCatV1.02B3,2014-01-01 23:20:00,
2014-01-01 17:25:00,54.3,49.2,30.12,SE,126,0.0,0.0,83,0.00,,,0.00,WeatherCatV1.02B3,2014-01-01 23:25:00,
2014-01-01 17:30:00,54.1,49.1,30.11,SE,126,0.0,0.0,83,0.00,,,0.00,WeatherCatV1.02B3,2014-01-01 23:30:00,
2014-01-01 17:35:00,54.0,49.3,30.11,SE,126,0.0,0.0,84,0.00,,,0.00,WeatherCatV1.02B3,2014-01-01 23:35:00,
2014-01-01 17:40:00,53.9,49.2,30.11,SE,126,0.0,0.0,84,0.00,,,0.00,WeatherCatV1.02B3,2014-01-01 23:40:00,
2014-01-01 17:45:00,53.8,49.1,30.11,SE,126,0.0,2.0,84,0.00,,,0.00,WeatherCatV1.02B3,2014-01-01 23:45:00,
2014-01-01 17:50:00,53.8,49.4,30.11,SE,126,1.0,1.0,85,0.00,,,0.00,WeatherCatV1.02B3,2014-01-01 23:50:00,
2014-01-01 17:55:00,53.7,49.3,30.11,SE,126,0.0,0.0,85,0.00,,,0.00,WeatherCatV1.02B3,2014-01-01 23:55:00,
2014-01-01 18:00:00,53.7,49.3,30.11,SE,132,0.0,2.0,85,0.00,,,0.00,WeatherCatV1.02B3,2014-01-02 00:00:00,
2014-01-01 18:05:00,53.6,49.2,30.11,SE,132,0.0,0.0,85,0.00,,,0.00,WeatherCatV1.02B3,2014-01-02 00:05:00,
2014-01-01 18:10:00,53.6,49.5,30.11,SE,132,0.0,0.0,86,0.00,,,0.00,WeatherCatV1.02B3,2014-01-02 00:10:00,
2014-01-01 18:15:00,53.5,49.4,30.11,SE,132,0.0,2.0,86,0.00,,,0.00,WeatherCatV1.02B3,2014-01-02 00:15:00,
2014-01-01 18:20:00,53.5,49.4,30.11,SE,132,2.0,4.0,86,0.00,,,0.00,WeatherCatV1.02B3,2014-01-02 00:20:00,
2014-01-01 18:25:00,53.4,49.3,30.11,SE,132,0.0,0.0,86,0.00,,,0.00,WeatherCatV1.02B3,2014-01-02 00:25:00,
2014-01-01 18:30:00,53.3,49.2,30.10,SE,132,0.0,0.0,86,0.00,,,0.00,WeatherCatV1.02B3,2014-01-02 00:30:00,
2014-01-01 18:35:00,53.2,49.4,30.10,SE,132,0.0,0.0,87,0.00,,,0.00,WeatherCatV1.02B3,2014-01-02 00:35:00,
2014-01-01 18:40:00,53.2,49.4,30.10,SE,132,0.0,0.0,87,0.00,,,0.00,WeatherCatV1.02B3,2014-01-02 00:40:00,
2014-01-01 18:45:00,53.1,49.3,30.11,SE,132,0.0,0.0,87,0.00,,,0.00,WeatherCatV1.02B3,2014-01-02 00:45:00,
2014-01-01 18:51:00,53.1,49.3,30.11,SE,132,2.0,5.0,87,0.00,,,0.00,WeatherCatV1.02B3,2014-01-02 00:51:00,
2014-01-01 18:56:00,53.1,49.3,30.11,SSE,155,0.0,5.0,87,0.00,,,0.00,WeatherCatV1.02B3,2014-01-02 00:56:00,
2014-01-01 19:01:00,53.1,49.3,30.11,SSE,155,0.0,0.0,87,0.00,,,0.00,WeatherCatV1.02B3,2014-01-02 01:01:00,
2014-01-01 19:06:00,53.1,49.3,30.11,SSE,155,0.0,0.0,87,0.00,,,0.00,WeatherCatV1.02B3,2014-01-02 01:06:00,
2014-01-01 19:11:00,53.0,49.2,30.11,SSE,155,0.0,0.0,87,0.00,,,0.00,WeatherCatV1.02B3,2014-01-02 01:11:00,
2014-01-01 19:16:00,53.0,49.5,30.11,SSE,155,0.0,2.0,88,0.00,,,0.00,WeatherCatV1.02B3,2014-01-02 01:16:00,
2014-01-01 19:21:00,52.9,49.4,30.11,SSE,155,0.0,4.0,88,0.00,,,0.00,WeatherCatV1.02B3,2014-01-02 01:21:00,
2014-01-01 19:26:00,52.9,49.4,30.11,SSE,155,0.0,4.0,88,0.00,,,0.00,WeatherCatV1.02B3,2014-01-02 01:26:00,
2014-01-01 19:31:00,52.9,49.4,30.10,SSE,155,0.0,0.0,88,0.00,,,0.00,WeatherCatV1.02B3,2014-01-02 01:31:00,
2014-01-01 19:36:00,52.9,49.4,30.11,SE,138,0.0,5.0,88,0.00,,,0.00,WeatherCatV1.02B3,2014-01-02 01:36:00,
2014-01-01 19:41:00,52.9,49.4,30.11,SE,130,1.0,4.0,88,0.00,,,0.00,WeatherCatV1.02B3,2014-01-02 01:41:00,
2014-01-01 19:46:00,52.9,49.4,30.11,SE,130,1.0,2.0,88,0.00,,,0.00,WeatherCatV1.02B3,2014-01-02 01:46:00,
2014-01-01 19:51:00,52.9,49.4,30.11,SE,130,0.0,1.0,88,0.00,,,0.00,WeatherCatV1.02B3,2014-01-02 01:51:00,
2014-01-01 19:56:00,52.9,49.4,30.11,SE,130,2.0,4.0,88,0.00,,,0.00,WeatherCatV1.02B3,2014-01-02 01:56:00,
2014-01-01 20:01:00,52.9,49.7,30.11,SE,131,0.0,2.0,89,0.00,,,0.00,WeatherCatV1.02B3,2014-01-02 02:01:00,
2014-01-01 20:06:00,52.9,49.7,30.11,SE,131,4.0,4.0,89,0.00,,,0.00,WeatherCatV1.02B3,2014-01-02 02:06:00,
2014-01-01 20:11:00,52.9,49.7,30.10,SE,131,0.0,4.0,89,0.00,,,0.00,WeatherCatV1.02B3,2014-01-02 02:11:00,
2014-01-01 20:16:00,53.0,49.8,30.10,East,98,0.0,5.0,89,0.00,,,0.00,WeatherCatV1.02B3,2014-01-02 02:16:00,
2014-01-01 20:21:00,53.0,49.8,30.10,SE,146,0.0,1.0,89,0.00,,,0.00,WeatherCatV1.02B3,2014-01-02 02:21:00,
2014-01-01 20:26:00,53.0,49.8,30.10,SE,130,0.0,5.0,89,0.00,,,0.00,WeatherCatV1.02B3,2014-01-02 02:26:00,
2014-01-01 20:31:00,53.0,49.8,30.11,ESE,117,0.0,0.0,89,0.00,,,0.00,WeatherCatV1.02B3,2014-01-02 02:31:00,
2014-01-01 20:36:00,52.9,49.7,30.11,SE,132,1.0,2.0,89,0.00,,,0.00,WeatherCatV1.02B3,2014-01-02 02:36:00,
2014-01-01 20:41:00,52.9,50.0,30.11,SE,132,0.0,1.0,90,0.00,,,0.00,WeatherCatV1.02B3,2014-01-02 02:41:00,
2014-01-01 20:46:00,52.9,50.0,30.10,SE,132,0.0,4.0,90,0.00,,,0.00,WeatherCatV1.02B3,2014-01-02 02:46:00,
2014-01-01 20:51:00,52.9,50.0,30.11,SE,132,0.0,4.0,90,0.00,,,0.00,WeatherCatV1.02B3,2014-01-02 02:51:00,
2014-01-01 20:56:00,52.8,49.9,30.11,SE,136,1.0,2.0,90,0.00,,,0.00,WeatherCatV1.02B3,2014-01-02 02:56:00,
2014-01-01 21:01:00,52.7,50.1,30.11,SE,137,0.0,4.0,91,0.00,,,0.00,WeatherCatV1.02B3,2014-01-02 03:01:00,
2014-01-01 21:06:00,52.7,50.1,30.11,SE,137,0.0,1.0,91,0.00,,,0.00,WeatherCatV1.02B3,2014-01-02 03:06:00,
2014-01-01 21:11:00,52.6,50.0,30.10,SE,129,0.0,5.0,91,0.00,,,0.00,WeatherCatV1.02B3,2014-01-02 03:11:00,
2014-01-01 21:16:00,52.5,49.9,30.11,SE,129,1.0,1.0,91,0.00,,,0.00,WeatherCatV1.02B3,2014-01-02 03:16:00,
2014-01-01 21:21:00,52.5,50.2,30.11,SE,138,0.0,2.0,92,0.00,,,0.00,WeatherCatV1.02B3,2014-01-02 03:21:00,
2014-01-01 21:26:00,52.4,50.1,30.11,ESE,112,0.0,1.0,92,0.00,,,0.00,WeatherCatV1.02B3,2014-01-02 03:26:00,
2014-01-01 21:31:00,52.4,50.1,30.11,ESE,112,0.0,2.0,92,0.00,,,0.00,WeatherCatV1.02B3,2014-01-02 03:31:00,
2014-01-01 21:36:00,52.4,50.1,30.11,ESE,119,0.0,1.0,92,0.00,,,0.00,WeatherCatV1.02B3,2014-01-02 03:36:00,
2014-01-01 21:41:00,52.4,50.1,30.10,ESE,121,0.0,5.0,92,0.00,,,0.00,WeatherCatV1.02B3,2014-01-02 03:41:00,
2014-01-01 21:46:00,52.4,50.4,30.10,SE,138,2.0,2.0,93,0.00,,,0.00,WeatherCatV1.02B3,2014-01-02 03:46:00,
2014-01-01 21:51:00,52.4,50.4,30.10,South,179,0.0,4.0,93,0.00,,,0.00,WeatherCatV1.02B3,2014-01-02 03:51:00,
2014-01-01 21:56:00,52.4,50.4,30.10,ESE,123,0.0,6.0,93,0.00,,,0.00,WeatherCatV1.02B3,2014-01-02 03:56:00,
2014-01-01 22:01:00,52.4,50.4,30.10,SE,144,0.0,6.0,93,0.00,,,0.01,WeatherCatV1.02B3,2014-01-02 04:01:00,
2014-01-01 22:06:00,52.4,50.4,30.10,SSW,211,2.0,4.0,93,0.00,,,0.01,WeatherCatV1.02B3,2014-01-02 04:06:00,
2014-01-01 22:11:00,52.5,50.5,30.10,ESE,123,0.0,4.0,93,0.00,,,0.01,WeatherCatV1.02B3,2014-01-02 04:11:00,
2014-01-01 22:16:00,52.6,50.9,30.10,ESE,123,0.0,1.0,94,0.04,,,0.02,WeatherCatV1.02B3,2014-01-02 04:16:00,
2014-01-01 22:21:00,52.7,51.0,30.10,SSE,165,1.0,4.0,94,0.13,,,0.03,WeatherCatV1.02B3,2014-01-02 04:21:00,
2014-01-01 22:26:00,52.8,51.1,30.09,SSW,202,0.0,6.0,94,0.34,,,0.06,WeatherCatV1.02B3,2014-01-02 04:26:00,
2014-01-01 22:31:00,52.8,51.1,30.09,ESE,117,0.0,1.0,94,0.15,,,0.07,WeatherCatV1.02B3,2014-01-02 04:31:00,
2014-01-01 22:36:00,52.8,51.1,30.09,SE,125,2.0,6.0,94,0.08,,,0.08,WeatherCatV1.02B3,2014-01-02 04:36:00,
2014-01-01 22:41:00,52.7,51.0,30.09,ESE,119,0.0,2.0,94,0.08,,,0.08,WeatherCatV1.02B3,2014-01-02 04:41:00,
2014-01-01 22:46:00,52.7,51.0,30.08,SE,137,4.0,4.0,94,0.05,,,0.08,WeatherCatV1.02B3,2014-01-02 04:46:00,
2014-01-01 22:51:00,52.7,51.0,30.08,SE,136,0.0,2.0,94,0.04,,,0.08,WeatherCatV1.02B3,2014-01-02 04:51:00,
2014-01-01 22:56:00,52.7,51.0,30.08,SE,136,2.0,5.0,94,0.00,,,0.08,WeatherCatV1.02B3,2014-01-02 04:56:00,
2014-01-01 23:01:00,52.7,51.3,30.08,SE,136,0.0,0.0,95,0.00,,,0.09,WeatherCatV1.02B3,2014-01-02 05:01:00,
2014-01-01 23:02:00,52.7,51.3,30.08,ESE,110,0.0,4.0,95,0.00,,,0.09,WeatherCatV1.02B3,2014-01-02 05:02:00,
2014-01-01 23:07:00,52.7,51.3,30.07,ESE,123,2.0,6.0,95,0.00,,,0.09,WeatherCatV1.02B3,2014-01-02 05:07:00,
2014-01-01 23:12:00,52.7,51.3,30.08,South,190,0.0,1.0,95,0.00,,,0.09,WeatherCatV1.02B3,2014-01-02 05:12:00,
2014-01-01 23:17:00,52.6,51.2,30.07,SE,132,0.0,7.0,95,0.00,,,0.09,WeatherCatV1.02B3,2014-01-02 05:17:00,
2014-01-01 23:22:00,52.6,51.2,30.07,ESE,105,0.0,0.0,95,0.00,,,0.09,WeatherCatV1.02B3,2014-01-02 05:22:00,
2014-01-01 23:27:00,52.6,51.2,30.07,SE,130,1.0,2.0,95,0.00,,,0.09,WeatherCatV1.02B3,2014-01-02 05:27:00,
2014-01-01 23:32:00,52.6,51.2,30.07,SSE,154,0.0,1.0,95,0.00,,,0.10,WeatherCatV1.02B3,2014-01-02 05:32:00,
2014-01-01 23:37:00,52.7,51.3,30.07,SSE,154,0.0,2.0,95,0.00,,,0.10,WeatherCatV1.02B3,2014-01-02 05:37:00,
2014-01-01 23:42:00,52.7,51.3,30.07,East,101,0.0,0.0,95,0.00,,,0.10,WeatherCatV1.02B3,2014-01-02 05:42:00,
2014-01-01 23:47:00,52.7,51.3,30.07,ESE,107,0.0,4.0,95,0.00,,,0.10,WeatherCatV1.02B3,2014-01-02 05:47:00,
2014-01-01 23:52:00,52.7,51.3,30.06,SSE,147,0.0,5.0,95,0.00,,,0.10,WeatherCatV1.02B3,2014-01-02 05:52:00,
2014-01-01 23:57:00,52.7,51.3,30.06,SSE,159,0.0,6.0,95,0.00,,,0.10,WeatherCatV1.02B3,2014-01-02 05:57:00,